createdAt,value
2022-08-16T00:04:20.551Z,28.48
2022-08-16T00:08:36.715Z,34.67
2022-08-16T00:12:53.115Z,36.07
2022-08-16T00:17:18.229Z,38.30
2022-08-16T00:21:35.782Z,36.92
2022-08-16T00:26:36.329Z,37.40
2022-08-16T00:30:28.930Z,35.15
2022-08-16T00:34:52.687Z,37.17
2022-08-16T00:39:10.333Z,39.72
2022-08-16T00:43:42.598Z,34.97
2022-08-16T00:47:57.659Z,39.35
2022-08-16T00:52:30.100Z,34.85
2022-08-16T00:56:58.504Z,38.27
2022-08-16T01:01:16.953Z,40.10
2022-08-16T01:05:32.964Z,34.10
2022-08-16T01:09:46.920Z,41.83
2022-08-16T01:14:13.615Z,35.58
2022-08-16T01:18:39.266Z,39.13
2022-08-16T01:23:03.710Z,38.35
2022-08-16T01:27:28.037Z,36.73
2022-08-16T01:31:43.744Z,40.53
2022-08-16T01:36:09.367Z,32.50
2022-08-16T01:40:28.817Z,33.80
2022-08-16T01:44:44.596Z,40.97
2022-08-16T01:49:02.977Z,37.60
2022-08-16T01:53:16.886Z,39.17
2022-08-16T01:57:53.338Z,37.55
2022-08-16T02:02:26.594Z,37.42
2022-08-16T02:06:46.010Z,38.72
2022-08-16T02:11:04.700Z,33.40
2022-08-16T02:15:24.757Z,25.65
2022-08-16T02:19:59.094Z,26.38
2022-08-16T02:24:31.494Z,26.33
2022-08-16T02:28:47.161Z,29.70
2022-08-16T02:33:03.384Z,27.02
2022-08-16T02:37:20.925Z,25.33
2022-08-16T02:41:37.393Z,28.20
2022-08-16T02:45:54.054Z,25.40
2022-08-16T02:50:54.952Z,27.05
2022-08-16T02:54:44.865Z,27.77
2022-08-16T02:58:58.921Z,22.58
2022-08-16T03:03:15.258Z,23.05
2022-08-16T03:07:37.182Z,24.30
2022-08-16T03:11:53.765Z,27.38
2022-08-16T03:16:32.794Z,22.70
2022-08-16T03:20:42.737Z,26.33
2022-08-16T03:25:12.383Z,22.75
2022-08-16T03:29:39.275Z,26.67
2022-08-16T03:34:08.979Z,26.65
2022-08-16T03:38:34.005Z,24.87
2022-08-16T03:43:19.109Z,25.05
2022-08-16T03:47:36.080Z,21.15
2022-08-16T03:51:51.959Z,23.63
2022-08-16T03:56:20.829Z,23.33
2022-08-16T04:00:41.230Z,25.15
2022-08-16T04:05:02.061Z,23.77
2022-08-16T04:09:18.422Z,22.88
2022-08-16T04:13:59.038Z,20.00
2022-08-16T04:18:09.517Z,22.13
2022-08-16T04:22:27.637Z,20.40
2022-08-16T04:26:46.772Z,20.38
2022-08-16T04:31:02.964Z,19.08
2022-08-16T04:35:24.398Z,19.07
2022-08-16T04:39:46.563Z,17.33
2022-08-16T04:44:31.054Z,18.83
2022-08-16T04:48:45.523Z,19.90
2022-08-16T04:53:00.760Z,16.88
2022-08-16T04:57:19.811Z,14.25
2022-08-16T05:01:58.346Z,14.35
2022-08-16T05:06:09.903Z,14.03
2022-08-16T05:10:25.061Z,13.27
2022-08-16T05:14:45.207Z,14.63
2022-08-16T05:19:11.376Z,15.93
2022-08-16T05:23:33.183Z,12.73
2022-08-16T05:27:49.993Z,13.25
2022-08-16T05:32:32.739Z,13.90
2022-08-16T05:36:44.430Z,12.13
2022-08-16T05:41:00.257Z,14.10
2022-08-16T05:45:23.196Z,10.93
2022-08-16T05:49:43.152Z,13.37
2022-08-16T05:53:58.860Z,13.35
2022-08-16T05:58:20.009Z,11.85
2022-08-16T06:02:46.858Z,12.07
2022-08-16T06:07:32.068Z,11.68
2022-08-16T06:11:56.511Z,10.25
2022-08-16T06:16:17.790Z,10.33
2022-08-16T06:20:35.480Z,9.45
2022-08-16T06:25:06.914Z,10.70
2022-08-16T06:29:21.061Z,11.23
2022-08-16T06:33:41.691Z,9.60
2022-08-16T06:37:57.703Z,10.85
2022-08-16T06:42:14.179Z,9.27
2022-08-16T06:46:58.890Z,10.07
2022-08-16T06:51:17.143Z,9.65
2022-08-16T06:55:35.101Z,8.57
2022-08-16T06:59:58.440Z,11.53
2022-08-16T07:04:28.193Z,9.15
2022-08-16T07:08:47.182Z,10.00
2022-08-16T07:13:04.029Z,9.00
2022-08-16T07:17:26.368Z,9.13
2022-08-16T07:21:59.875Z,9.80
2022-08-16T07:26:24.374Z,8.52
2022-08-16T07:30:46.306Z,8.83
2022-08-16T07:35:17.895Z,9.25
2022-08-16T07:39:33.807Z,9.40
2022-08-16T07:43:48.867Z,8.27
2022-08-16T07:48:11.112Z,7.68
2022-08-16T07:52:30.176Z,8.25
2022-08-16T07:56:45.122Z,8.95
2022-08-16T08:01:01.631Z,9.10
2022-08-16T08:05:17.434Z,9.85
2022-08-16T08:09:52.199Z,8.00
2022-08-16T08:14:07.854Z,9.37
2022-08-16T08:18:31.002Z,7.35
2022-08-16T08:22:49.383Z,7.65
2022-08-16T08:27:08.337Z,9.73
2022-08-16T08:31:22.539Z,7.28
2022-08-16T08:35:36.759Z,7.65
2022-08-16T08:39:55.391Z,9.02
2022-08-16T08:44:28.631Z,8.27
2022-08-16T08:48:45.317Z,8.25
2022-08-16T08:53:14.766Z,9.57
2022-08-16T08:57:31.116Z,7.80
2022-08-16T09:02:08.907Z,8.80
2022-08-16T09:06:32.699Z,8.38
2022-08-16T09:10:47.303Z,9.20
2022-08-16T09:15:21.536Z,7.65
2022-08-16T09:19:40.629Z,8.68
2022-08-16T09:23:55.714Z,8.20
2022-08-16T09:28:11.513Z,8.20
2022-08-16T09:32:32.468Z,9.05
2022-08-16T09:36:47.638Z,7.88
2022-08-16T09:41:02.658Z,9.27
2022-08-16T09:45:18.447Z,10.63
2022-08-16T09:49:36.813Z,6.53
2022-08-16T09:53:55.920Z,7.10
2022-08-16T09:58:10.660Z,7.00
2022-08-16T10:02:28.088Z,7.45
2022-08-16T10:06:46.175Z,7.95
2022-08-16T10:11:24.607Z,10.27
2022-08-16T10:15:40.265Z,7.55
2022-08-16T10:19:55.512Z,6.07
2022-08-16T10:24:10.779Z,6.43
2022-08-16T10:28:28.589Z,6.38
2022-08-16T10:32:43.674Z,7.68
2022-08-16T10:36:57.733Z,6.17
2022-08-16T10:41:16.076Z,7.85
2022-08-16T10:45:36.881Z,7.57
2022-08-16T10:49:51.723Z,5.88
2022-08-16T10:54:06.112Z,6.37
2022-08-16T10:58:41.429Z,6.90
2022-08-16T11:03:41.988Z,7.35
2022-08-16T11:07:52.173Z,6.10
2022-08-16T11:12:13.571Z,8.30
2022-08-16T11:21:05.129Z,7.43
2022-08-16T11:29:56.742Z,7.35
2022-08-16T11:34:10.555Z,6.10
2022-08-16T11:38:52.048Z,7.23
2022-08-16T11:43:00.030Z,6.53
2022-08-16T11:47:13.952Z,6.20
2022-08-16T11:51:28.563Z,6.93
2022-08-16T11:55:44.490Z,7.30
2022-08-16T11:59:58.292Z,5.68
2022-08-16T12:04:13.450Z,7.13
2022-08-16T12:08:27.547Z,6.45
2022-08-16T12:12:43.985Z,6.80
2022-08-16T12:17:04.633Z,6.90
2022-08-16T12:21:20.479Z,6.23
2022-08-16T12:25:37.803Z,7.00
2022-08-16T12:29:58.548Z,6.72
2022-08-16T12:34:12.881Z,8.00
2022-08-16T12:38:41.779Z,7.53
2022-08-16T12:43:04.202Z,7.03
2022-08-16T12:47:37.227Z,7.10
2022-08-16T12:51:59.023Z,8.60
2022-08-16T12:56:14.236Z,6.93
2022-08-16T13:00:33.133Z,6.82
2022-08-16T13:04:49.144Z,9.13
2022-08-16T13:09:20.230Z,7.43
2022-08-16T13:13:35.581Z,6.35
2022-08-16T13:17:50.337Z,7.33
2022-08-16T13:22:05.929Z,7.70
2022-08-16T13:26:19.835Z,7.03
2022-08-16T13:30:41.168Z,6.13
2022-08-16T13:34:55.295Z,8.45
2022-08-16T13:39:12.191Z,6.93
2022-08-16T13:43:27.753Z,6.43
2022-08-16T13:47:42.739Z,7.50
2022-08-16T13:51:56.524Z,7.00
2022-08-16T13:56:22.285Z,6.20
2022-08-16T14:00:39.188Z,6.00
2022-08-16T14:05:02.962Z,6.80
2022-08-16T14:09:20.151Z,7.43
2022-08-16T14:13:36.145Z,8.80
2022-08-16T14:18:15.648Z,7.45
2022-08-16T14:22:31.120Z,6.28
2022-08-16T14:26:48.206Z,7.82
2022-08-16T14:31:03.416Z,8.07
2022-08-16T14:35:20.573Z,7.80
2022-08-16T14:39:35.450Z,7.25
2022-08-16T14:43:53.285Z,8.07
2022-08-16T14:48:08.667Z,6.32
2022-08-16T14:52:51.805Z,7.28
2022-08-16T14:56:58.324Z,7.60
2022-08-16T15:01:12.583Z,7.18
2022-08-16T15:10:01.621Z,9.00
2022-08-16T15:14:16.076Z,7.13
2022-08-16T15:18:33.562Z,11.02
2022-08-16T15:22:51.261Z,8.00
2022-08-16T15:27:06.254Z,6.73
2022-08-16T15:31:27.599Z,7.60
2022-08-16T15:35:42.538Z,6.68
2022-08-16T15:39:57.713Z,7.50
2022-08-16T15:44:15.562Z,6.35
2022-08-16T15:48:35.142Z,7.93
2022-08-16T15:52:57.227Z,6.32
2022-08-16T15:57:12.531Z,6.67
2022-08-16T16:01:26.411Z,8.93
2022-08-16T16:05:41.786Z,7.47
2022-08-16T16:09:58.293Z,6.67
2022-08-16T16:14:16.274Z,10.70
2022-08-16T16:18:34.559Z,7.28
2022-08-16T16:22:49.843Z,6.63
2022-08-16T16:27:06.673Z,7.95
2022-08-16T16:31:22.073Z,5.95
2022-08-16T16:35:36.300Z,9.02
2022-08-16T16:39:50.269Z,7.20
2022-08-16T16:44:06.163Z,8.77
2022-08-16T16:48:22.067Z,6.30
2022-08-16T16:52:45.094Z,7.03
2022-08-16T16:56:59.379Z,8.13
2022-08-16T17:01:14.586Z,6.38
2022-08-16T17:05:32.569Z,8.00
2022-08-16T17:09:47.344Z,8.90
2022-08-16T17:14:01.704Z,8.30
2022-08-16T17:19:06.466Z,6.03
2022-08-16T17:22:54.551Z,8.80
2022-08-16T17:27:08.731Z,6.47
2022-08-16T17:31:23.300Z,5.85
2022-08-16T17:35:55.694Z,7.27
2022-08-16T17:40:25.403Z,9.25
2022-08-16T17:44:47.213Z,5.50
2022-08-16T17:49:01.080Z,7.77
2022-08-16T17:53:16.154Z,6.32
2022-08-16T17:57:31.257Z,7.50
2022-08-16T18:01:46.296Z,8.95
2022-08-16T18:06:03.257Z,7.13
2022-08-16T18:10:32.577Z,7.57
2022-08-16T18:14:51.449Z,10.43
2022-08-16T18:19:06.681Z,9.70
2022-08-16T18:23:23.695Z,9.32
2022-08-16T18:27:38.623Z,8.70
2022-08-16T18:31:54.037Z,8.60
2022-08-16T18:36:20.688Z,13.43
2022-08-16T18:40:35.632Z,9.60
2022-08-16T18:44:49.441Z,9.13
2022-08-16T18:49:05.245Z,8.80
2022-08-16T18:53:21.218Z,8.30
2022-08-16T18:57:35.029Z,10.13
2022-08-16T19:01:49.020Z,8.33
2022-08-16T19:06:06.502Z,7.88
2022-08-16T19:10:24.451Z,8.65
2022-08-16T19:14:38.487Z,8.60
2022-08-16T19:18:52.248Z,10.10
2022-08-16T19:23:12.212Z,11.27
2022-08-16T19:27:32.175Z,8.75
2022-08-16T19:31:47.780Z,12.73
2022-08-16T19:36:01.589Z,16.67
2022-08-16T19:40:38.114Z,19.75
2022-08-16T19:44:53.405Z,11.93
2022-08-16T19:49:07.344Z,14.13
2022-08-16T19:53:21.627Z,15.38
2022-08-16T19:57:38.433Z,13.33
2022-08-16T20:01:53.153Z,15.85
2022-08-16T20:06:07.679Z,12.93
2022-08-16T20:10:25.459Z,14.40
2022-08-16T20:14:44.766Z,15.87
2022-08-16T20:18:59.063Z,10.68
2022-08-16T20:23:24.125Z,7.57
2022-08-16T20:27:39.566Z,18.67
2022-08-16T20:31:54.936Z,12.57
2022-08-16T20:36:09.436Z,9.52
2022-08-16T20:40:35.283Z,10.10
2022-08-16T20:44:50.139Z,10.95
2022-08-16T20:49:05.643Z,11.80
2022-08-16T20:53:23.309Z,13.50
2022-08-16T20:57:37.963Z,10.57
2022-08-16T21:01:51.925Z,17.40
2022-08-16T21:06:07.523Z,10.43
2022-08-16T21:10:23.442Z,12.63
2022-08-16T21:14:37.726Z,11.85
2022-08-16T21:18:55.364Z,18.42
2022-08-16T21:23:11.320Z,10.47
2022-08-16T21:27:25.591Z,10.73
2022-08-16T21:31:40.502Z,12.85
2022-08-16T21:35:55.177Z,10.73
2022-08-16T21:40:12.976Z,10.03
2022-08-16T21:44:31.157Z,8.90
2022-08-16T21:48:53.405Z,12.13
2022-08-16T21:53:09.329Z,10.27
2022-08-16T21:57:24.847Z,9.10
2022-08-16T22:01:41.634Z,8.57
2022-08-16T22:06:13.340Z,9.60
2022-08-16T22:11:06.346Z,11.45
2022-08-16T22:15:05.837Z,8.90
2022-08-16T22:19:19.589Z,9.50
2022-08-16T22:23:34.513Z,11.07
2022-08-16T22:27:48.961Z,8.90
2022-08-16T22:32:05.134Z,10.80
2022-08-16T22:36:19.185Z,9.30
2022-08-16T22:40:33.064Z,10.10
2022-08-16T22:44:47.032Z,8.93
2022-08-16T22:49:03.243Z,9.17
2022-08-16T22:53:18.403Z,9.88
2022-08-16T22:57:39.557Z,10.70
2022-08-16T23:01:53.778Z,11.63
2022-08-16T23:06:12.349Z,24.10
2022-08-16T23:10:26.295Z,9.60
2022-08-16T23:14:40.161Z,12.55
2022-08-16T23:18:54.169Z,9.80
2022-08-16T23:23:20.754Z,9.60
2022-08-16T23:27:35.505Z,9.23
2022-08-16T23:31:49.709Z,8.80
2022-08-16T23:36:04.725Z,11.38
2022-08-16T23:40:21.585Z,8.57
2022-08-16T23:44:42.159Z,13.27
2022-08-16T23:50:02.495Z,25.53
2022-08-16T23:53:46.309Z,9.68
2022-08-16T23:58:01.941Z,13.13
